»·PEaware :: M-YRNA LICC-LICR

M-YRNA :: LICC-LICR

FLIGHT INFORMATION

Flight Status: Arrived
Operator: Privately registered:
Isle of Man
More flights under this callsign
Pilot: Angelo R. (1452)
Aircraft: BRITISH AERO BAe-3200 JETSTREAM SUPER 31
(JS32)
More flights by this aircraft type
Origin: LICC Fontanarossa
Italy
Destination: LICR Reggio Calabria
Italy
More flights between these airports :: More routes between these airports
Route:
File this flight plan on PilotEdge
Remarks: Real World Time & Weather
Altitude:
(Current/Filed)
2,500ft
Speed:
(Current/Filed)
210kts
Departed: 16-Dec-13 11:50 AM
Arrived: 16-Dec-13 01:02 PM
Distance/Time
Traveled:
46nm/1:12
Distance/Time
To Go:
Arrived

Flight Plot

Page will automatically refresh every two minutes.


Map Options




Map Legend


Flown Route
Filed Route
Departure Airport
Arrival Airport
Navaid (VOR, NDB)
Fix

Horizontal Profiles

Position Reports

Time Latitude Longitude Heading Altitude Ground
Speed
16-Dec-13 11:36 37.469077 15.059057 353 37ft 0kts
16-Dec-13 11:37 37.469077 15.059057 353 37ft 0kts
16-Dec-13 11:38 37.469077 15.059057 353 37ft 0kts
16-Dec-13 11:39 37.469077 15.059057 353 37ft 0kts
16-Dec-13 11:40 37.469077 15.059057 353 37ft 0kts
16-Dec-13 11:41 37.469077 15.059057 353 37ft 0kts
16-Dec-13 11:42 37.469106 15.059043 335 37ft 0kts
16-Dec-13 11:43 37.469602 15.058661 346 38ft 5kts
16-Dec-13 11:44 37.470150 15.057369 230 41ft 5kts
16-Dec-13 11:45 37.468595 15.055560 223 45ft 9kts
16-Dec-13 11:46 37.467355 15.053601 263 47ft 11kts
16-Dec-13 11:47 37.466312 15.052102 223 49ft 10kts
16-Dec-13 11:48 37.465723 15.053738 84 45ft 0kts
16-Dec-13 11:49 37.467260 15.075971 85 567ft 143kts
16-Dec-13 11:50 37.479874 15.126288 42 2326ft 174kts
16-Dec-13 11:51 37.519026 15.171755 39 2507ft 199kts
16-Dec-13 11:52 37.560033 15.215153 35 2504ft 193kts
16-Dec-13 11:53 37.604069 15.250989 31 2505ft 191kts
16-Dec-13 11:54 37.635145 15.275903 29 2509ft 204kts
16-Dec-13 11:55 37.683423 15.311494 29 2505ft 212kts
16-Dec-13 11:56 37.736040 15.346621 26 2505ft 215kts
16-Dec-13 11:57 37.786981 15.383605 29 2505ft 216kts
16-Dec-13 11:58 37.836858 15.420161 29 2504ft 213kts
16-Dec-13 11:59 37.881791 15.454564 32 2504ft 212kts
16-Dec-13 12:00 37.921416 15.494331 40 2498ft 205kts
16-Dec-13 12:34 37.469129 15.059688 352 35ft 0kts
16-Dec-13 12:35 37.469129 15.059688 352 35ft 0kts
16-Dec-13 12:36 37.469129 15.059688 352 35ft 0kts
16-Dec-13 12:37 37.469129 15.059688 352 35ft 0kts
16-Dec-13 12:38 37.469129 15.059688 352 35ft 0kts
16-Dec-13 12:39 37.469151 15.058965 259 37ft 4kts
16-Dec-13 12:40 37.470082 15.058390 312 39ft 6kts
16-Dec-13 12:41 37.469470 15.056561 222 43ft 8kts
16-Dec-13 12:42 37.467564 15.054533 218 47ft 8kts
16-Dec-13 12:43 37.466629 15.052475 223 48ft 0kts
16-Dec-13 12:44 37.465753 15.051962 146 49ft 8kts
16-Dec-13 12:45 37.466299 15.060493 84 33ft 122kts
16-Dec-13 12:46 37.478991 15.113216 43 1484ft 179kts
16-Dec-13 12:47 37.514460 15.156144 41 1534ft 177kts
16-Dec-13 12:48 37.553358 15.194050 30 1785ft 179kts
16-Dec-13 12:49 37.599982 15.228605 26 2069ft 196kts
16-Dec-13 12:50 37.647458 15.259410 23 2558ft 192kts
16-Dec-13 12:51 37.685953 15.286962 33 2976ft 195kts
16-Dec-13 12:52 37.738098 15.333650 34 3014ft 203kts
16-Dec-13 12:53 37.784298 15.376106 34 2829ft 209kts
16-Dec-13 12:54 37.829245 15.417236 35 2643ft 209kts
16-Dec-13 12:55 37.868204 15.453321 36 2534ft 206kts
16-Dec-13 12:56 37.920343 15.501461 39 2339ft 202kts
16-Dec-13 12:57 37.955608 15.538348 39 2090ft 198kts
16-Dec-13 12:58 37.994387 15.584033 50 1790ft 193kts
16-Dec-13 12:59 38.021467 15.630091 55 1611ft 159kts
16-Dec-13 13:00 38.047272 15.660735 14 887ft 144kts
16-Dec-13 13:01 38.076244 15.648187 338 67ft 29kts

Navigation Log

Ident Type
1. LICC Airport
2. LICR Airport